Time;durP1;ratioP1;P1;durP2;ratioP2;P2;SDS_P1;SDS_P2;PMS_P1;PMS_P2;Temp;Humidity;BMP_temperature;BMP_pressure;BME280_temperature;BME280_humidity;BME280_pressure;Samples;Min_cycle;Max_cycle;Signal;HPM_P1;HPM_P2
2022/12/08 08:23:54;;;;;;;;;40.00;29.25;;;;;6.27;100.00;100961.84;5488846;23;49812;-70
2022/12/08 08:26:19;;;;;;;;;31.00;28.50;;;;;6.45;100.00;100985.16;4921026;28;49669;-71
2022/12/08 08:28:45;;;;;;;;;35.00;28.75;;;;;6.44;100.00;100985.09;4927776;28;50232;-70
2022/12/08 08:31:11;;;;;;;;;37.50;33.75;;;;;6.45;100.00;100986.88;4927024;28;49887;-70
2022/12/08 08:33:37;;;;;;;;;36.50;35.25;;;;;6.63;100.00;100994.56;4930804;28;49775;-70
2022/12/08 08:36:08;;;;;;;;;31.50;23.50;;;;;6.66;100.00;101000.81;4933948;28;49753;-70
2022/12/08 08:38:38;;;;;;;;;30.25;28.00;;;;;6.67;100.00;101002.59;4930600;28;49897;-73
2022/12/08 08:41:08;;;;;;;;;27.25;26.50;;;;;6.67;100.00;101006.91;4931277;28;49820;-69
2022/12/08 08:43:35;;;;;;;;;36.50;32.00;;;;;6.54;100.00;100972.50;4931123;28;49762;-69
2022/12/08 08:46:01;;;;;;;;;43.25;32.50;;;;;6.62;100.00;100966.69;4931362;28;49725;-72
2022/12/08 08:48:28;;;;;;;;;41.00;33.00;;;;;6.52;100.00;100945.47;4931423;28;49951;-71
2022/12/08 08:50:54;;;;;;;;;36.00;31.00;;;;;6.47;100.00;100923.53;4931486;28;50891;-73
2022/12/08 08:53:20;;;;;;;;;46.25;34.25;;;;;5.99;100.00;100837.34;4931327;28;50049;-71
2022/12/08 08:55:45;;;;;;;;;39.00;31.25;;;;;6.86;100.00;100975.50;4931199;28;49774;-71
2022/12/08 08:58:11;;;;;;;;;41.00;34.25;;;;;6.82;100.00;100960.53;4929914;28;50001;-70
2022/12/08 09:00:36;;;;;;;;;29.50;25.25;;;;;6.80;100.00;100968.31;4930418;28;49916;-72
2022/12/08 09:03:02;;;;;;;;;41.00;32.50;;;;;6.90;100.00;100982.59;4931173;28;49833;-71
2022/12/08 09:05:27;;;;;;;;;49.25;38.50;;;;;6.71;100.00;100952.28;4935243;28;50053;-70
2022/12/08 09:07:53;;;;;;;;;41.25;35.00;;;;;6.87;100.00;100972.94;4939323;28;49693;-72
2022/12/08 09:10:18;;;;;;;;;37.25;33.50;;;;;6.49;100.00;100903.63;4946755;28;50149;-73
2022/12/08 09:12:44;;;;;;;;;33.00;31.25;;;;;6.05;100.00;100836.66;4946405;28;49583;-70
2022/12/08 09:15:09;;;;;;;;;33.50;30.25;;;;;6.64;100.00;100937.22;4933128;28;49670;-67
2022/12/08 09:17:35;;;;;;;;;32.00;28.25;;;;;6.70;100.00;100945.31;4934672;28;49943;-68
2022/12/08 09:20:00;;;;;;;;;32.25;23.50;;;;;6.89;100.00;100963.44;4924620;28;51830;-67
2022/12/08 09:22:26;;;;;;;;;31.50;29.50;;;;;6.99;100.00;100969.91;4931590;28;49814;-70
2022/12/08 09:24:51;;;;;;;;;39.00;26.25;;;;;7.09;100.00;100984.22;4931251;28;49864;-73
2022/12/08 09:27:17;;;;;;;;;23.25;22.75;;;;;7.10;100.00;100967.72;4923119;28;50123;-67
2022/12/08 09:29:42;;;;;;;;;33.50;29.50;;;;;7.15;100.00;100976.63;4937866;28;49508;-77
2022/12/08 09:32:08;;;;;;;;;33.00;25.50;;;;;7.05;100.00;100962.34;4949142;28;49578;-69
2022/12/08 09:34:33;;;;;;;;;36.00;33.50;;;;;7.16;100.00;100971.44;4956208;28;49691;-68
2022/12/08 09:36:58;;;;;;;;;36.00;32.25;;;;;6.75;100.00;100893.28;4946556;28;49850;-69
2022/12/08 09:39:24;;;;;;;;;37.25;32.75;;;;;6.96;100.00;100942.81;4950852;28;49880;-68
2022/12/08 09:41:57;;;;;;;;;34.00;26.50;;;;;7.21;100.00;100970.72;4942335;28;49803;-71
2022/12/08 09:44:51;;;;;;;;;32.00;29.50;;;;;7.21;100.00;100971.63;4949201;28;49464;-67
2022/12/08 09:47:35;;;;;;;;;36.75;26.25;;;;;7.21;100.00;100971.63;4950581;28;49359;-69
2022/12/08 09:50:06;;;;;;;;;31.25;20.50;;;;;7.01;100.00;100934.31;4948099;28;49951;-78
2022/12/08 09:52:46;;;;;;;;;39.25;33.25;;;;;6.97;100.00;100935.03;4951294;28;49693;-67
2022/12/08 09:55:21;;;;;;;;;28.50;26.00;;;;;7.22;100.00;100960.34;4945973;28;49955;-69
2022/12/08 09:57:56;;;;;;;;;40.25;36.25;;;;;7.33;100.00;100968.56;4937850;28;50216;-69
2022/12/08 10:00:22;;;;;;;;;40.00;36.50;;;;;7.25;100.00;100952.63;4936810;28;50995;-70
2022/12/08 10:02:47;;;;;;;;;27.75;24.25;;;;;7.38;100.00;100965.31;4936356;28;49871;-70
2022/12/08 10:05:14;;;;;;;;;43.75;32.00;;;;;7.37;100.00;100966.13;4937781;28;50045;-70
2022/12/08 10:08:10;;;;;;;;;40.00;33.00;;;;;7.36;100.00;100945.19;4933356;28;49841;-70
2022/12/08 10:10:46;;;;;;;;;33.75;30.00;;;;;7.54;100.00;100952.81;4936114;28;49746;-78
2022/12/08 10:13:25;;;;;;;;;33.75;30.25;;;;;7.56;100.00;100948.53;4938707;28;50032;-69
2022/12/08 10:16:10;;;;;;;;;34.75;30.25;;;;;7.53;100.00;100935.31;4938082;28;49799;-75
2022/12/08 10:18:36;;;;;;;;;38.75;34.00;;;;;7.66;100.00;100946.28;4935525;28;49707;-78
2022/12/08 10:21:24;;;;;;;;;44.25;32.75;;;;;7.65;100.00;100941.91;4936113;28;50248;-72
2022/12/08 10:23:57;;;;;;;;;33.75;29.00;;;;;6.99;100.00;100823.75;4937624;28;49580;-69
2022/12/08 10:26:22;;;;;;;;;38.00;32.75;;;;;7.70;100.00;100937.72;4937662;28;49853;-70
2022/12/08 10:28:48;;;;;;;;;36.75;29.50;;;;;7.77;100.00;100937.94;4941705;28;49653;-69
2022/12/08 10:31:19;;;;;;;;;39.00;29.50;;;;;7.32;99.46;100852.78;4936970;28;55446;-70
2022/12/08 10:33:47;;;;;;;;;30.50;26.75;;;;;7.61;99.16;100900.81;4933127;28;49914;-70
2022/12/08 10:36:12;;;;;;;;;32.25;25.00;;;;;7.69;99.00;100906.31;4933083;28;49917;-70
2022/12/08 10:38:39;;;;;;;;;45.00;35.25;;;;;7.66;98.08;100908.81;4932452;28;50117;-70
2022/12/08 10:41:10;;;;;;;;;28.00;27.75;;;;;7.75;99.86;100915.25;4932656;28;49860;-69
2022/12/08 10:43:46;;;;;;;;;38.25;28.75;;;;;7.43;99.09;100859.28;4932697;28;49933;-69
2022/12/08 10:46:20;;;;;;;;;37.00;31.50;;;;;7.78;98.63;100905.75;4933323;28;49729;-69
2022/12/08 10:49:09;;;;;;;;;34.00;29.75;;;;;7.62;98.64;100878.19;4932929;28;49786;-71
2022/12/08 10:51:39;;;;;;;;;41.50;35.75;;;;;7.85;98.84;100910.34;4928311;28;49755;-70
2022/12/08 10:54:20;;;;;;;;;32.25;30.25;;;;;7.83;98.27;100905.06;4931994;28;50042;-69
2022/12/08 10:56:54;;;;;;;;;34.00;30.75;;;;;7.79;97.68;100900.56;4933126;28;49810;-69
2022/12/08 10:59:19;;;;;;;;;34.75;33.25;;;;;7.74;98.31;100894.31;4932926;28;49898;-68
2022/12/08 11:01:47;;;;;;;;;36.00;33.75;;;;;7.78;98.87;100896.16;4932435;28;51305;-70
2022/12/08 11:04:32;;;;;;;;;39.25;33.25;;;;;7.83;97.51;100891.13;4932038;28;49995;-70
2022/12/08 11:06:58;;;;;;;;;31.00;28.00;;;;;7.63;97.25;100849.50;4935179;28;49906;-70
2022/12/08 11:09:45;;;;;;;;;32.25;29.00;;;;;7.63;97.12;100839.06;4937023;28;49778;-69
2022/12/08 11:12:16;;;;;;;;;30.00;26.75;;;;;7.75;97.40;100851.66;4936490;28;50345;-70
2022/12/08 11:14:41;;;;;;;;;34.75;30.75;;;;;7.96;97.91;100870.66;4934349;28;49700;-75
2022/12/08 11:17:14;;;;;;;;;33.00;28.00;;;;;7.98;96.02;100863.75;4935381;28;49636;-73
2022/12/08 11:20:18;;;;;;;;;34.50;30.75;;;;;8.02;97.12;100860.41;4933359;28;49875;-82
2022/12/08 11:22:49;;;;;;;;;35.00;29.50;;;;;7.80;96.92;100817.81;4937374;28;49924;-73
2022/12/08 11:25:21;;;;;;;;;40.25;31.50;;;;;7.84;96.58;100823.22;4931584;28;49820;-74
2022/12/08 11:27:48;;;;;;;;;30.75;29.50;;;;;8.11;96.03;100851.09;4932350;28;49920;-74
2022/12/08 11:30:30;;;;;;;;;42.00;35.25;;;;;8.15;96.44;100845.09;4933370;28;49929;-75
2022/12/08 11:33:04;;;;;;;;;36.50;29.25;;;;;7.73;95.97;100761.88;4936711;28;51218;-85
2022/12/08 11:35:34;;;;;;;;;36.00;31.50;;;;;8.23;94.83;100843.63;4939641;28;49600;-81
2022/12/08 11:38:12;;;;;;;;;36.75;34.00;;;;;8.12;94.14;100811.03;4935542;28;49775;-74
2022/12/08 11:40:40;;;;;;;;;37.75;32.25;;;;;8.32;94.59;100844.81;4932684;28;50017;-72
2022/12/08 11:43:15;;;;;;;;;41.00;33.50;;;;;8.41;94.61;100831.16;4930920;28;49980;-72
2022/12/08 11:45:41;;;;;;;;;40.75;34.25;;;;;8.31;93.07;100829.06;4927739;28;49887;-73
2022/12/08 11:48:18;;;;;;;;;30.25;29.50;;;;;7.73;93.32;100733.13;4930331;28;49974;-75
2022/12/08 11:50:56;;;;;;;;;33.00;28.00;;;;;8.31;91.95;100790.72;4931313;28;50022;-71
2022/12/08 11:53:41;;;;;;;;;39.50;32.75;;;;;8.44;90.19;100805.06;4937239;28;50065;-72
2022/12/08 11:56:34;;;;;;;;;38.25;34.50;;;;;8.21;89.44;100759.91;4935236;28;50071;-72
2022/12/08 11:59:07;;;;;;;;;35.75;32.25;;;;;8.06;89.47;100728.03;4929880;28;50197;-71
2022/12/08 12:01:32;;;;;;;;;41.00;34.75;;;;;7.95;89.97;100696.34;4930259;28;50097;-69
2022/12/08 12:04:12;;;;;;;;;33.75;30.75;;;;;8.69;89.70;100822.41;4928606;28;52258;-71
2022/12/08 12:07:05;;;;;;;;;33.50;30.25;;;;;8.72;89.41;100826.84;4929849;28;49841;-71
2022/12/08 12:09:50;;;;;;;;;31.25;31.25;;;;;8.74;89.43;100820.78;4930545;28;49989;-69
2022/12/08 12:12:37;;;;;;;;;34.50;33.50;;;;;8.79;88.53;100815.69;4933115;28;49587;-70
2022/12/08 12:15:55;;;;;;;;;29.75;28.00;;;;;8.83;88.70;100821.06;4931929;28;49784;-72
2022/12/08 12:18:28;;;;;;;;;37.00;34.25;;;;;7.77;87.15;100668.78;4931671;28;49958;-76
2022/12/08 12:21:03;;;;;;;;;32.25;29.25;;;;;8.00;88.14;100720.00;4929803;28;50014;-74
2022/12/08 12:23:47;;;;;;;;;29.75;27.25;;;;;8.79;88.80;100828.78;4933975;28;49952;-77
2022/12/08 12:26:21;;;;;;;;;38.00;29.00;;;;;7.52;88.43;100620.09;4936976;28;50150;-75
2022/12/08 12:29:13;;;;;;;;;31.75;31.75;;;;;7.93;87.29;100677.13;4931344;28;49767;-73
2022/12/08 12:31:46;;;;;;;;;33.75;26.75;;;;;8.64;88.51;100829.22;4936021;28;49731;-74
2022/12/08 12:34:14;;;;;;;;;43.75;37.50;;;;;8.63;89.20;100809.13;4939722;28;49798;-74
2022/12/08 12:36:48;;;;;;;;;33.75;31.25;;;;;7.71;89.41;100672.06;4933167;28;51027;-75
2022/12/08 12:39:17;;;;;;;;;37.50;34.25;;;;;8.02;88.58;100721.84;4932839;28;49725;-76
2022/12/08 12:41:58;;;;;;;;;29.50;27.25;;;;;8.41;88.10;100765.75;4938807;28;49945;-75
2022/12/08 12:44:44;;;;;;;;;82.00;62.00;;;;;8.37;89.26;100779.56;4937340;28;49760;-75
2022/12/08 12:47:12;;;;;;;;;51.25;43.50;;;;;7.89;89.11;100724.03;4939055;28;50704;-79
2022/12/08 12:49:37;;;;;;;;;53.00;45.00;;;;;8.50;89.05;100801.78;4934945;28;49741;-75
2022/12/08 12:52:04;;;;;;;;;49.00;40.25;;;;;8.18;89.00;100761.50;4935796;28;49785;-73
2022/12/08 12:54:29;;;;;;;;;49.25;41.50;;;;;6.85;90.22;100546.66;4939023;28;49771;-73
2022/12/08 12:57:18;;;;;;;;;44.25;38.00;;;;;8.41;89.62;100791.03;4934873;28;50867;-73
2022/12/08 12:59:43;;;;;;;;;38.75;36.00;;;;;8.40;90.18;100786.63;4935340;28;49861;-76
2022/12/08 13:02:15;;;;;;;;;37.00;32.75;;;;;7.97;90.59;100733.88;4937455;28;49818;-76
2022/12/08 13:04:43;;;;;;;;;39.75;35.50;;;;;7.95;90.47;100709.41;4929567;28;50041;-75
2022/12/08 13:07:20;;;;;;;;;35.00;28.50;;;;;7.52;89.94;100636.66;4928957;28;49750;-73
2022/12/08 13:09:57;;;;;;;;;37.50;35.75;;;;;8.25;89.26;100769.59;4929916;28;49958;-71
2022/12/08 13:12:24;;;;;;;;;64.00;51.00;;;;;8.25;90.42;100777.44;4934725;28;49892;-76
2022/12/08 13:14:52;;;;;;;;;54.00;44.00;;;;;7.61;91.51;100654.34;4938048;28;49841;-77
2022/12/08 13:17:30;;;;;;;;;35.75;32.75;;;;;7.77;90.98;100679.22;4938835;28;49966;-72
2022/12/08 13:19:59;;;;;;;;;33.75;32.00;;;;;7.73;90.75;100666.06;4937148;28;49769;-73
2022/12/08 13:22:49;;;;;;;;;56.75;45.75;;;;;8.36;90.68;100767.34;4937698;28;49723;-75
2022/12/08 13:25:39;;;;;;;;;324.00;266.25;;;;;8.34;90.39;100761.13;4934068;28;50106;-74
2022/12/08 13:28:28;;;;;;;;;122.33;109.00;;;;;8.26;90.55;100746.94;4930801;28;50604;-73
2022/12/08 13:30:58;;;;;;;;;59.50;48.00;;;;;8.35;90.77;100756.81;4933904;28;49722;-72
2022/12/08 13:33:38;;;;;;;;;36.00;34.25;;;;;8.33;90.76;100755.03;4934045;28;49763;-76
2022/12/08 13:36:12;;;;;;;;;59.00;48.25;;;;;8.35;91.22;100749.88;4934068;28;50006;-74
2022/12/08 13:38:38;;;;;;;;;53.00;42.00;;;;;7.83;90.53;100667.25;4933842;28;50169;-71
2022/12/08 13:41:12;;;;;;;;;39.75;32.25;;;;;8.14;90.63;100715.22;4934192;28;50012;-71
2022/12/08 13:43:45;;;;;;;;;37.25;30.00;;;;;8.32;90.29;100752.38;4934341;28;49836;-71
2022/12/08 13:46:13;;;;;;;;;29.25;28.50;;;;;7.95;90.96;100677.16;4934314;28;49880;-70
2022/12/08 13:48:50;;;;;;;;;40.50;36.50;;;;;8.32;90.88;100747.13;4932516;28;49871;-73
2022/12/08 13:51:22;;;;;;;;;37.25;33.50;;;;;8.28;91.37;100737.41;4933871;28;49771;-71
2022/12/08 13:53:59;;;;;;;;;42.25;38.50;;;;;8.26;91.75;100739.97;4933456;28;49824;-72
2022/12/08 13:56:27;;;;;;;;;34.75;33.75;;;;;8.15;91.78;100730.94;4934162;28;49715;-71
2022/12/08 13:59:09;;;;;;;;;37.25;31.50;;;;;8.11;92.54;100716.00;4934040;28;49663;-70
2022/12/08 14:01:43;;;;;;;;;35.75;33.50;;;;;8.17;91.76;100734.47;4933406;28;49635;-70
2022/12/08 14:04:14;;;;;;;;;42.75;36.75;;;;;8.17;91.62;100736.22;4933836;28;49749;-72
2022/12/08 14:06:43;;;;;;;;;55.50;44.75;;;;;8.07;92.82;100719.34;4933623;28;49960;-72
2022/12/08 14:09:17;;;;;;;;;42.00;35.50;;;;;7.93;92.84;100697.16;4933221;28;50722;-72
2022/12/08 14:11:49;;;;;;;;;38.50;36.25;;;;;8.10;93.00;100714.22;4933435;28;49699;-71
2022/12/08 14:14:31;;;;;;;;;39.00;37.00;;;;;8.13;93.12;100723.91;4931780;28;49713;-72
2022/12/08 14:17:01;;;;;;;;;47.00;38.25;;;;;7.96;93.06;100695.50;4933876;28;49934;-72
2022/12/08 14:19:30;;;;;;;;;33.50;28.00;;;;;8.04;92.78;100704.47;4933400;28;51067;-71
2022/12/08 14:22:12;;;;;;;;;39.25;30.50;;;;;8.00;92.90;100706.94;4933041;28;50071;-72
2022/12/08 14:24:39;;;;;;;;;39.75;36.50;;;;;8.10;93.18;100721.16;4933461;28;49959;-73
2022/12/08 14:27:07;;;;;;;;;46.50;39.75;;;;;7.33;92.88;100592.50;4932838;28;49608;-72
2022/12/08 14:29:51;;;;;;;;;37.50;35.00;;;;;7.84;93.32;100695.13;4932772;28;50979;-70
2022/12/08 14:32:25;;;;;;;;;53.00;42.50;;;;;8.00;93.14;100723.50;4933131;28;49738;-75
2022/12/08 14:34:57;;;;;;;;;51.50;42.25;;;;;8.00;93.67;100723.50;4933295;28;49834;-70
2022/12/08 14:37:30;;;;;;;;;37.25;33.25;;;;;8.00;93.84;100709.53;4933295;28;49731;-69
2022/12/08 14:40:06;;;;;;;;;37.50;31.75;;;;;7.83;93.36;100697.72;4931821;28;51448;-70
2022/12/08 14:43:01;;;;;;;;;38.50;36.00;;;;;7.52;93.94;100648.81;4933348;28;49766;-69
2022/12/08 14:45:26;;;;;;;;;40.25;34.50;;;;;7.75;94.01;100676.56;4921276;28;49708;-70
2022/12/08 14:47:52;;;;;;;;;40.00;37.00;;;;;7.98;93.94;100711.22;4932869;28;49739;-71
2022/12/08 14:50:39;;;;;;;;;44.50;36.75;;;;;7.90;94.34;100700.53;4932769;28;50312;-70
2022/12/08 14:53:14;;;;;;;;;33.75;31.75;;;;;7.93;94.65;100711.09;4933032;28;50429;-70
2022/12/08 14:55:41;;;;;;;;;38.00;32.50;;;;;7.93;93.38;100713.72;4933158;28;49607;-70
2022/12/08 14:58:16;;;;;;;;;28.00;27.00;;;;;7.52;93.48;100641.88;4933012;28;49988;-70
2022/12/08 15:00:48;;;;;;;;;34.25;30.00;;;;;7.85;94.13;100691.69;4932683;28;50590;-71
2022/12/08 15:03:16;;;;;;;;;34.50;30.75;;;;;7.57;93.87;100653.38;4932851;28;50071;-70
2022/12/08 15:05:50;;;;;;;;;38.25;33.00;;;;;7.90;95.08;100710.09;4931463;28;49832;-71
2022/12/08 15:08:16;;;;;;;;;38.75;34.50;;;;;7.75;94.11;100684.41;4932744;28;49603;-74
2022/12/08 15:10:46;;;;;;;;;28.75;26.75;;;;;7.78;93.38;100701.91;4932556;28;50946;-71
2022/12/08 15:13:12;;;;;;;;;33.25;30.00;;;;;7.81;94.51;100715.06;4932959;28;49878;-70
2022/12/08 15:15:51;;;;;;;;;29.75;29.75;;;;;7.79;95.09;100707.16;4932733;28;50113;-71
2022/12/08 15:18:20;;;;;;;;;31.50;26.50;;;;;7.78;95.16;100709.72;4939527;28;49729;-78
2022/12/08 15:20:50;;;;;;;;;31.00;25.75;;;;;7.78;94.98;100709.72;4932553;28;50796;-69
2022/12/08 15:23:31;;;;;;;;;31.50;28.50;;;;;6.70;94.69;100527.00;4933646;28;50030;-70
2022/12/08 15:25:58;;;;;;;;;38.00;35.25;;;;;7.56;95.26;100666.38;4932393;28;49681;-72
2022/12/08 15:28:27;;;;;;;;;37.50;31.00;;;;;7.76;95.15;100699.25;4932417;28;49693;-71
2022/12/08 15:30:54;;;;;;;;;38.75;37.00;;;;;7.53;94.55;100655.81;4930296;28;49856;-74
2022/12/08 15:33:19;;;;;;;;;31.25;25.50;;;;;7.61;94.27;100678.72;4930227;28;49885;-75
2022/12/08 15:35:47;;;;;;;;;42.00;31.75;;;;;7.10;93.79;100617.91;4932578;28;49886;-72
2022/12/08 15:38:19;;;;;;;;;38.00;33.50;;;;;7.63;94.88;100725.84;4932325;28;49948;-73
2022/12/08 15:40:45;;;;;;;;;35.25;30.50;;;;;6.15;94.56;100458.28;4932522;28;49746;-81
2022/12/08 15:43:10;;;;;;;;;37.75;35.75;;;;;7.34;94.93;100654.38;4933772;28;49723;-76
2022/12/08 15:45:36;;;;;;;;;39.00;36.00;;;;;6.58;95.86;100544.03;4932351;28;49650;-75
2022/12/08 15:48:02;;;;;;;;;44.75;36.00;;;;;6.14;95.64;100447.81;4933377;28;49802;-75
2022/12/08 15:50:27;;;;;;;;;34.50;30.25;;;;;6.67;95.68;100529.53;4931731;28;50841;-72
2022/12/08 15:52:53;;;;;;;;;34.00;32.50;;;;;7.28;96.44;100633.28;4936977;28;49647;-71
2022/12/08 15:55:20;;;;;;;;;34.00;30.75;;;;;7.25;96.24;100646.25;4929532;28;49867;-71
2022/12/08 15:57:51;;;;;;;;;30.00;27.50;;;;;6.99;96.23;100594.06;4928931;28;49823;-70
2022/12/08 16:00:24;;;;;;;;;42.25;36.25;;;;;7.59;96.59;100697.81;4931277;28;49754;-71
2022/12/08 16:02:50;;;;;;;;;29.75;25.75;;;;;7.50;96.10;100687.06;4931847;28;49727;-73
2022/12/08 16:05:15;;;;;;;;;44.50;36.50;;;;;7.14;97.13;100648.47;4932116;28;50085;-71
2022/12/08 16:07:41;;;;;;;;;33.50;31.25;;;;;7.42;96.90;100681.59;4931520;28;49758;-73
2022/12/08 16:10:13;;;;;;;;;38.50;35.50;;;;;6.15;97.56;100489.53;4931782;28;49846;-73
2022/12/08 16:15:22;;;;;;;;;35.25;28.00;;;;;7.47;98.05;100703.53;4932376;28;49805;-78
2022/12/08 16:17:48;;;;;;;;;46.50;39.50;;;;;7.50;98.12;100695.81;4941902;28;49476;-78
2022/12/08 16:20:16;;;;;;;;;34.25;34.00;;;;;7.45;97.01;100705.22;4934132;28;52044;-73
2022/12/08 16:22:44;;;;;;;;;42.75;33.25;;;;;6.87;97.90;100625.00;4931265;28;49738;-72
2022/12/08 16:25:12;;;;;;;;;38.75;34.75;;;;;7.29;97.87;100689.88;4930196;28;49977;-71
2022/12/08 16:27:38;;;;;;;;;39.00;32.25;;;;;7.35;99.48;100697.94;4930512;28;49957;-71
2022/12/08 16:30:06;;;;;;;;;43.25;35.75;;;;;7.20;98.52;100684.38;4932638;28;50351;-74
2022/12/08 16:32:31;;;;;;;;;35.00;31.75;;;;;7.21;98.44;100673.06;4931883;28;49786;-72
2022/12/08 16:34:57;;;;;;;;;43.25;35.50;;;;;6.99;98.90;100641.06;4931254;28;49682;-72
2022/12/08 16:37:25;;;;;;;;;35.00;34.75;;;;;7.17;99.87;100675.59;4931991;28;50084;-74
2022/12/08 16:39:52;;;;;;;;;47.50;40.25;;;;;7.25;99.65;100688.03;4931360;28;50282;-71
2022/12/08 16:42:42;;;;;;;;;42.25;35.50;;;;;7.18;100.00;100694.75;4932940;28;50005;-69
2022/12/08 16:45:14;;;;;;;;;45.50;35.75;;;;;7.09;100.00;100670.97;4932749;28;49805;-76
2022/12/08 16:47:41;;;;;;;;;51.00;39.00;;;;;6.55;100.00;100584.75;4944765;28;49471;-77
2022/12/08 16:50:10;;;;;;;;;44.50;39.75;;;;;5.79;100.00;100451.75;4948491;28;50575;-75
2022/12/08 16:52:35;;;;;;;;;49.25;38.50;;;;;7.07;100.00;100680.47;4948627;28;49355;-64
2022/12/08 16:55:01;;;;;;;;;47.00;38.75;;;;;6.87;100.00;100661.53;4947039;28;49384;-69
2022/12/08 16:57:26;;;;;;;;;54.50;44.25;;;;;6.28;100.00;100563.88;4945011;28;49239;-63
2022/12/08 16:59:53;;;;;;;;;47.75;40.75;;;;;6.98;100.00;100680.16;4933657;28;50343;-63
2022/12/08 17:02:19;;;;;;;;;48.25;40.00;;;;;6.61;100.00;100611.06;4930909;28;49862;-65
2022/12/08 17:04:48;;;;;;;;;52.50;41.25;;;;;6.51;100.00;100591.59;4930446;28;50133;-76
2022/12/08 17:07:14;;;;;;;;;55.00;44.50;;;;;5.72;100.00;100482.81;4936994;28;49579;-71
2022/12/08 17:09:39;;;;;;;;;55.75;46.00;;;;;6.98;100.00;100672.31;4948297;28;49699;-66
2022/12/08 17:12:05;;;;;;;;;59.00;45.00;;;;;6.50;100.00;100591.56;4948785;28;49598;-65
2022/12/08 17:14:34;;;;;;;;;58.25;44.50;;;;;6.51;100.00;100614.19;4947349;28;49387;-66
2022/12/08 17:16:59;;;;;;;;;63.25;47.50;;;;;6.72;100.00;100682.75;4948170;28;49509;-77
2022/12/08 17:19:24;;;;;;;;;58.50;45.50;;;;;6.69;100.00;100677.44;4943388;28;56432;-77
2022/12/08 17:21:50;;;;;;;;;56.25;44.75;;;;;6.23;100.00;100602.78;4946060;28;49382;-74
2022/12/08 17:24:15;;;;;;;;;60.00;45.75;;;;;6.65;100.00;100664.22;4946083;28;49629;-75
2022/12/08 17:26:41;;;;;;;;;55.50;41.25;;;;;6.66;100.00;100663.38;4949029;28;49332;-74
2022/12/08 17:29:06;;;;;;;;;54.75;44.25;;;;;6.71;100.00;100667.03;4950038;28;50183;-74
2022/12/08 17:31:32;;;;;;;;;57.00;45.25;;;;;6.79;100.00;100673.41;4951319;28;49538;-68
2022/12/08 17:34:02;;;;;;;;;54.25;45.25;;;;;6.63;100.00;100645.03;4951073;28;49888;-74
2022/12/08 17:36:27;;;;;;;;;62.00;48.75;;;;;6.32;100.00;100603.13;4942406;28;49900;-64
2022/12/08 17:38:53;;;;;;;;;57.25;45.50;;;;;6.55;100.00;100644.75;4933306;28;49751;-65
2022/12/08 17:41:19;;;;;;;;;56.50;44.00;;;;;6.69;100.00;100673.94;4935176;28;50008;-72
2022/12/08 17:43:44;;;;;;;;;56.75;47.50;;;;;6.77;100.00;100668.16;4951875;28;49621;-65
2022/12/08 17:46:14;;;;;;;;;45.00;40.00;;;;;6.44;100.00;100604.38;4952424;28;49594;-68
2022/12/08 17:48:40;;;;;;;;;61.75;40.50;;;;;6.82;100.00;100657.84;4950016;28;49943;-64
2022/12/08 17:51:08;;;;;;;;;60.50;42.25;;;;;6.88;100.00;100668.53;4951445;28;49434;-67
2022/12/08 17:53:33;;;;;;;;;54.50;43.75;;;;;6.58;100.00;100605.75;4949798;28;50338;-64
2022/12/08 17:55:58;;;;;;;;;63.50;45.00;;;;;6.59;100.00;100634.50;4949141;28;49388;-65
2022/12/08 17:58:24;;;;;;;;;62.25;48.00;;;;;6.76;100.00;100673.31;4950688;28;50025;-64
2022/12/08 18:00:50;;;;;;;;;55.50;42.25;;;;;6.72;100.00;100669.69;4951712;28;49494;-70
2022/12/08 18:03:16;;;;;;;;;49.75;41.25;;;;;6.34;100.00;100630.97;4948868;28;49483;-68
2022/12/08 18:05:41;;;;;;;;;60.00;47.25;;;;;6.43;100.00;100629.56;4952011;28;49627;-71
2022/12/08 18:08:06;;;;;;;;;62.25;47.25;;;;;6.68;100.00;100677.38;4948543;28;49457;-73
2022/12/08 18:10:32;;;;;;;;;60.75;47.75;;;;;5.70;100.00;100520.94;4946932;28;49876;-65
2022/12/08 18:12:57;;;;;;;;;58.50;45.25;;;;;5.64;100.00;100493.78;4949621;28;49619;-70
2022/12/08 18:15:23;;;;;;;;;61.25;47.25;;;;;6.47;100.00;100617.53;4943341;28;49517;-75
2022/12/08 18:17:49;;;;;;;;;60.50;46.50;;;;;6.78;100.00;100671.66;4950996;28;50545;-71
2022/12/08 18:20:15;;;;;;;;;57.00;45.50;;;;;6.76;100.00;100668.09;4948063;28;49406;-63
2022/12/08 18:22:41;;;;;;;;;56.25;46.75;;;;;6.82;100.00;100670.91;4949411;28;49766;-63
2022/12/08 18:25:07;;;;;;;;;63.25;49.00;;;;;6.55;100.00;100608.22;4942046;28;49496;-62
2022/12/08 18:27:34;;;;;;;;;60.50;44.25;;;;;6.94;100.00;100663.47;4938959;28;49915;-64
2022/12/08 18:30:00;;;;;;;;;60.75;49.00;;;;;6.95;100.00;100672.19;4939213;28;49537;-64
2022/12/08 18:32:26;;;;;;;;;57.50;46.50;;;;;6.89;100.00;100654.63;4942227;28;49422;-62
2022/12/08 18:34:52;;;;;;;;;51.75;44.25;;;;;6.70;100.00;100627.03;4950814;28;49566;-62
2022/12/08 18:37:17;;;;;;;;;63.50;48.00;;;;;6.88;100.00;100658.09;4948492;28;50124;-64
2022/12/08 18:39:43;;;;;;;;;61.00;49.25;;;;;6.91;100.00;100649.47;4949169;28;49586;-65
2022/12/08 18:42:22;;;;;;;;;61.75;50.00;;;;;6.92;100.00;100652.13;4950799;28;49386;-70
2022/12/08 18:44:54;;;;;;;;;64.00;48.75;;;;;6.74;100.00;100638.44;4949693;28;49322;-63
2022/12/08 18:47:20;;;;;;;;;67.00;51.25;;;;;6.68;100.00;100635.66;4948123;28;49987;-73
2022/12/08 18:49:46;;;;;;;;;66.75;50.00;;;;;6.26;100.00;100588.97;4948421;28;49423;-74
2022/12/08 18:52:11;;;;;;;;;61.00;49.50;;;;;6.28;100.00;100592.53;4950068;28;49370;-65
2022/12/08 18:54:37;;;;;;;;;65.25;51.75;;;;;6.33;100.00;100593.56;4945213;28;49722;-70
2022/12/08 18:57:04;;;;;;;;;65.75;52.00;;;;;6.60;100.00;100636.25;4932663;28;49971;-70
2022/12/08 18:59:29;;;;;;;;;63.25;48.75;;;;;6.53;100.00;100625.56;4932717;28;50131;-68
2022/12/08 19:01:56;;;;;;;;;62.50;52.25;;;;;6.70;100.00;100655.72;4932923;28;49739;-67
2022/12/08 19:04:22;;;;;;;;;61.75;49.75;;;;;6.75;100.00;100648.94;4930531;28;49759;-69
2022/12/08 19:06:48;;;;;;;;;59.25;48.75;;;;;6.77;100.00;100649.88;4932184;28;49889;-73
2022/12/08 19:09:14;;;;;;;;;62.75;52.00;;;;;6.64;100.00;100618.97;4923347;28;49909;-70
2022/12/08 19:11:40;;;;;;;;;66.25;50.25;;;;;6.79;100.00;100650.81;4935273;28;49828;-80
2022/12/08 19:14:06;;;;;;;;;62.25;51.75;;;;;6.77;100.00;100649.00;4931045;28;49887;-63
2022/12/08 19:16:32;;;;;;;;;68.25;50.75;;;;;6.79;100.00;100649.94;4934606;28;50909;-79
2022/12/08 19:18:57;;;;;;;;;54.50;45.00;;;;;6.39;100.00;100587.69;4926551;28;49825;-62
2022/12/08 19:21:23;;;;;;;;;61.00;45.50;;;;;6.72;100.00;100630.56;4943944;28;49901;-65
2022/12/08 19:23:50;;;;;;;;;66.75;50.75;;;;;6.53;100.00;100581.22;4939218;28;49751;-77
2022/12/08 19:26:16;;;;;;;;;55.50;42.50;;;;;6.76;100.00;100623.75;4936394;28;50377;-77
2022/12/08 19:28:42;;;;;;;;;57.50;44.75;;;;;6.75;100.00;100635.88;4939885;28;49607;-77
2022/12/08 19:31:09;;;;;;;;;29.00;25.75;;;;;6.70;100.00;100639.19;4934087;28;49979;-71
2022/12/08 19:33:35;;;;;;;;;51.25;43.00;;;;;6.23;100.00;100565.41;4933329;28;49690;-65
2022/12/08 19:36:07;;;;;;;;;56.00;46.50;;;;;6.49;100.00;100603.72;4932316;28;51702;-75
2022/12/08 19:44:51;;;;;;;;;54.50;45.50;;;;;6.60;100.00;100619.72;4934072;28;49873;-67
2022/12/08 19:47:06;;;;;;;;;62.25;47.25;;;;;6.06;100.00;100558.72;4894349;29;50089;-74
2022/12/08 19:49:32;;;;;;;;;62.75;51.50;;;;;6.66;100.00;100642.50;4891463;29;49762;-69
2022/12/08 19:51:57;;;;;;;;;58.00;45.75;;;;;6.49;100.00;100647.16;4909625;28;49911;-72
2022/12/08 19:54:23;;;;;;;;;59.25;45.50;;;;;6.17;100.00;100612.09;4912293;28;50231;-73
2022/12/08 19:56:48;;;;;;;;;58.75;47.50;;;;;6.35;100.00;100645.75;4922231;28;50587;-73
2022/12/08 19:59:14;;;;;;;;;61.00;46.75;;;;;5.64;100.00;100538.94;4921838;28;50302;-78
2022/12/08 20:01:41;;;;;;;;;58.25;49.00;;;;;6.12;100.00;100630.19;4921091;28;50257;-78